Aviation Digital Data Service (ADDS)

Output produced by METARs form (0016 UTC 23 September 2014)
found at http://www.aviationweather.gov/adds/metars/
 
KLNS 222353Z 33006KT 10SM CLR 14/06 A3012 RMK AO2 SLP200 T01390056 10206 20139 53028
KLNS 222334Z 2300/2324 31010KT P6SM SCT250 
     FM230600 33004KT P6SM SKC 
     FM231500 34005KT P6SM FEW050